Time;durP1;ratioP1;P1;durP2;ratioP2;P2;SDS_P1;SDS_P2;PMS_P1;PMS_P2;Temp;Humidity;BMP_temperature;BMP_pressure;BME280_temperature;BME280_humidity;BME280_pressure;Samples;Min_cycle;Max_cycle;Signal;HPM_P1;HPM_P2
2023/04/17 00:01:07;;;;;;;36.13;21.23;;;;;;;6.83;100.00;97701.56;5029208;28;20033;-59
2023/04/17 00:03:34;;;;;;;35.72;19.88;;;;;;;6.84;100.00;97689.75;5022036;28;20333;-58
2023/04/17 00:06:00;;;;;;;34.33;19.05;;;;;;;6.87;100.00;97694.72;5022090;28;20037;-57
2023/04/17 00:08:27;;;;;;;33.80;19.52;;;;;;;6.97;100.00;97690.69;5024678;28;20149;-58
2023/04/17 00:10:53;;;;;;;31.80;18.38;;;;;;;6.96;100.00;97689.06;5030083;28;20041;-58
2023/04/17 00:13:33;;;;;;;25.05;16.10;;;;;;;6.98;100.00;97687.78;5018393;28;20072;-58
2023/04/17 00:16:00;;;;;;;28.45;17.83;;;;;;;7.00;100.00;97679.47;5017619;28;20041;-59
2023/04/17 00:18:26;;;;;;;30.02;17.38;;;;;;;7.02;100.00;97686.28;5017883;28;20434;-58
2023/04/17 00:20:53;;;;;;;27.98;17.25;;;;;;;7.06;100.00;97680.44;5024695;28;20048;-57
2023/04/17 00:23:19;;;;;;;26.25;15.93;;;;;;;7.14;100.00;97678.31;5024309;28;20041;-58
2023/04/17 00:25:46;;;;;;;27.90;16.85;;;;;;;6.97;100.00;97671.84;5021261;28;20497;-58
2023/04/17 00:28:12;;;;;;;28.45;16.15;;;;;;;6.93;100.00;97678.72;5021319;28;20441;-57
2023/04/17 00:30:39;;;;;;;27.98;16.45;;;;;;;6.90;100.00;97686.16;5018145;28;20042;-58
2023/04/17 00:33:06;;;;;;;29.35;16.33;;;;;;;6.85;100.00;97677.94;5020012;28;20117;-58
2023/04/17 00:35:32;;;;;;;27.25;16.38;;;;;;;6.88;100.00;97677.50;5018566;28;20046;-58
2023/04/17 00:37:59;;;;;;;31.42;17.67;;;;;;;6.87;100.00;97669.66;5019703;28;20527;-58
2023/04/17 00:40:25;;;;;;;27.05;16.35;;;;;;;6.84;100.00;97670.06;5023070;28;20532;-58
2023/04/17 00:42:55;;;;;;;29.48;17.58;;;;;;;6.84;100.00;97670.06;5020950;28;20041;-58
2023/04/17 00:45:21;;;;;;;30.45;18.15;;;;;;;6.85;100.00;97672.56;5019524;28;20131;-59
2023/04/17 00:47:48;;;;;;;28.02;16.60;;;;;;;6.87;100.00;97669.66;5026390;28;20037;-60
2023/04/17 00:50:15;;;;;;;26.77;15.98;;;;;;;6.86;100.00;97666.13;5019961;28;20499;-59
2023/04/17 00:52:43;;;;;;;29.42;17.58;;;;;;;6.87;100.00;97661.56;5024022;28;20037;-60
2023/04/17 00:55:11;;;;;;;28.52;17.45;;;;;;;6.82;100.00;97667.59;5025003;28;20128;-58
2023/04/17 00:57:38;;;;;;;31.00;17.52;;;;;;;6.80;100.00;97667.00;5030540;28;20138;-58
2023/04/17 01:00:07;;;;;;;30.95;19.05;;;;;;;6.80;100.00;97660.78;5026826;28;20049;-59
2023/04/17 01:02:34;;;;;;;33.38;20.00;;;;;;;6.79;100.00;97662.69;5024841;28;20044;-58
2023/04/17 01:05:01;;;;;;;33.53;19.10;;;;;;;6.81;100.00;97665.97;5023536;28;20099;-59
2023/04/17 01:07:29;;;;;;;30.63;18.98;;;;;;;6.76;100.00;97663.94;5021414;28;20128;-60
2023/04/17 01:09:55;;;;;;;37.05;20.45;;;;;;;6.73;100.00;97664.38;5026414;28;20072;-59
2023/04/17 01:12:24;;;;;;;32.92;19.13;;;;;;;6.74;100.00;97659.81;5022041;28;20056;-60
2023/04/17 01:14:52;;;;;;;36.10;19.23;;;;;;;6.76;100.00;97663.94;5013430;28;20081;-59
2023/04/17 01:17:19;;;;;;;37.13;20.77;;;;;;;6.77;100.00;97664.75;5023609;28;20049;-59
2023/04/17 01:19:47;;;;;;;31.35;19.13;;;;;;;6.80;100.00;97664.31;5020667;28;20080;-59
2023/04/17 01:22:18;;;;;;;37.17;18.75;;;;;;;6.84;100.00;97665.53;5024349;28;20044;-57
2023/04/17 01:24:48;;;;;;;32.85;19.92;;;;;;;6.82;100.00;97659.53;5023103;28;20046;-59
2023/04/17 01:27:15;;;;;;;33.95;18.77;;;;;;;6.84;100.00;97659.31;5023444;28;20060;-60
2023/04/17 01:29:43;;;;;;;30.95;18.25;;;;;;;6.79;100.00;97660.00;5016786;28;20069;-60
2023/04/17 01:32:10;;;;;;;31.88;18.40;;;;;;;6.85;100.00;97659.09;5014696;28;20095;-58
2023/04/17 01:34:36;;;;;;;33.63;19.17;;;;;;;6.83;100.00;97663.91;5018813;28;20052;-60
2023/04/17 01:37:03;;;;;;;31.02;17.75;;;;;;;6.78;100.00;97661.00;5019467;28;20071;-60
2023/04/17 01:39:30;;;;;;;33.22;18.02;;;;;;;6.91;100.00;97660.09;5017675;28;20690;-59
2023/04/17 01:41:56;;;;;;;28.48;17.50;;;;;;;6.85;100.00;97653.72;5015069;28;20042;-57
2023/04/17 01:44:23;;;;;;;27.70;16.83;;;;;;;6.80;100.00;97656.25;5025411;28;20416;-59
2023/04/17 01:46:50;;;;;;;31.80;17.42;;;;;;;6.71;100.00;97657.56;5018333;28;20049;-59
2023/04/17 01:49:16;;;;;;;33.45;18.58;;;;;;;6.67;100.00;97659.88;5018461;28;20042;-58
2023/04/17 01:51:43;;;;;;;30.83;17.08;;;;;;;6.68;100.00;97656.16;5019251;28;20543;-60
2023/04/17 01:54:09;;;;;;;30.27;17.92;;;;;;;6.70;100.00;97663.97;5024363;28;20706;-57
2023/04/17 01:56:36;;;;;;;31.50;18.52;;;;;;;6.62;100.00;97662.41;5014208;28;20530;-57
2023/04/17 01:59:02;;;;;;;30.85;18.88;;;;;;;6.70;100.00;97663.97;5013854;28;20045;-59
2023/04/17 02:01:29;;;;;;;30.23;17.38;;;;;;;6.77;100.00;97664.75;5020539;28;20088;-59
2023/04/17 02:03:56;;;;;;;28.77;18.25;;;;;;;6.78;100.00;97661.00;5024483;28;20100;-58
2023/04/17 02:06:23;;;;;;;30.75;18.58;;;;;;;6.79;100.00;97665.38;5037248;28;20667;-59
2023/04/17 02:08:50;;;;;;;29.30;18.48;;;;;;;6.78;100.00;97654.81;5015235;28;20045;-59
2023/04/17 02:11:17;;;;;;;23.95;15.25;;;;;;;6.80;100.00;97650.03;5017174;28;20053;-58
2023/04/17 02:13:43;;;;;;;28.42;16.48;;;;;;;6.73;100.00;97650.94;5014299;28;20081;-60
2023/04/17 02:16:11;;;;;;;27.58;16.67;;;;;;;6.69;100.00;97643.50;5016678;28;20057;-59
2023/04/17 02:18:40;;;;;;;26.45;17.05;;;;;;;6.70;100.00;97656.75;5020918;28;20049;-60
2023/04/17 02:21:08;;;;;;;27.90;17.13;;;;;;;6.67;100.00;97651.78;5013669;28;20061;-58
2023/04/17 02:23:35;;;;;;;28.02;16.80;;;;;;;6.72;100.00;97659.22;5027921;28;20038;-58
2023/04/17 02:26:03;;;;;;;29.70;17.23;;;;;;;6.76;100.00;97653.19;5013397;28;20037;-58
2023/04/17 02:28:29;;;;;;;33.67;18.00;;;;;;;6.70;100.00;97651.34;5010619;28;20101;-57
2023/04/17 02:31:00;;;;;;;30.23;17.60;;;;;;;6.68;100.00;97648.06;5018564;28;20574;-60
2023/04/17 02:33:28;;;;;;;29.85;18.20;;;;;;;6.66;100.00;97652.03;5019584;28;20046;-60
2023/04/17 02:35:55;;;;;;;30.77;18.15;;;;;;;6.63;100.00;97656.78;5014942;28;20628;-59
2023/04/17 02:38:29;;;;;;;26.95;16.67;;;;;;;6.67;100.00;97654.47;5009569;28;20408;-59
2023/04/17 02:40:56;;;;;;;31.52;17.50;;;;;;;6.63;100.00;97659.50;5013365;28;20069;-59
2023/04/17 02:43:23;;;;;;;33.20;18.50;;;;;;;6.59;100.00;97657.44;5011943;28;20647;-60
2023/04/17 02:45:50;;;;;;;31.77;17.88;;;;;;;6.57;100.00;97667.63;5019873;28;20036;-59
2023/04/17 02:48:17;;;;;;;34.78;18.67;;;;;;;6.55;100.00;97665.13;5016646;28;20528;-59
2023/04/17 02:50:43;;;;;;;28.52;16.63;;;;;;;6.60;100.00;97659.91;5015705;28;20053;-59
2023/04/17 02:53:16;;;;;;;29.60;17.65;;;;;;;6.62;100.00;97657.84;5013002;28;20057;-58
2023/04/17 02:55:42;;;;;;;29.63;16.65;;;;;;;6.63;100.00;97654.09;5012784;28;20041;-59
2023/04/17 02:58:09;;;;;;;30.65;16.38;;;;;;;6.75;100.00;97659.59;5016643;28;20163;-60
2023/04/17 03:00:35;;;;;;;27.60;17.02;;;;;;;6.74;100.00;97657.13;5010687;28;20051;-58
2023/04/17 03:03:02;;;;;;;30.98;17.52;;;;;;;6.74;100.00;97654.44;5020863;28;20038;-60
2023/04/17 03:05:29;;;;;;;29.23;16.77;;;;;;;6.68;100.00;97653.47;5019160;28;20046;-59
2023/04/17 03:07:58;;;;;;;30.92;17.30;;;;;;;6.69;100.00;97659.66;5022265;28;20037;-59
2023/04/17 03:10:27;;;;;;;30.75;16.55;;;;;;;6.71;100.00;97658.38;5013671;28;20044;-59
2023/04/17 03:12:54;;;;;;;30.08;18.05;;;;;;;6.72;100.00;97651.13;5018895;28;20042;-60
2023/04/17 03:15:20;;;;;;;33.97;19.00;;;;;;;6.67;100.00;97662.56;5022418;28;20095;-57
2023/04/17 03:17:47;;;;;;;31.75;18.15;;;;;;;6.63;100.00;97656.78;5021649;28;20044;-60
2023/04/17 03:20:14;;;;;;;33.13;19.20;;;;;;;6.62;100.00;97665.91;5014386;28;20125;-60
2023/04/17 03:22:41;;;;;;;31.02;18.63;;;;;;;6.63;100.00;97664.88;5021527;28;20042;-57
2023/04/17 03:25:08;;;;;;;28.48;16.90;;;;;;;6.69;100.00;97657.78;5016454;28;20049;-58
2023/04/17 03:27:45;;;;;;;32.20;17.35;;;;;;;6.68;100.00;97652.63;5023553;28;20136;-58
2023/04/17 03:30:13;;;;;;;30.85;18.20;;;;;;;6.60;100.00;97661.81;5017458;28;20421;-60
2023/04/17 03:32:43;;;;;;;34.13;18.63;;;;;;;6.62;100.00;97657.00;5025981;28;20033;-60
2023/04/17 03:35:10;;;;;;;27.40;17.02;;;;;;;6.73;100.00;97655.47;5018705;28;20050;-60
2023/04/17 03:37:36;;;;;;;28.05;16.27;;;;;;;6.75;100.00;97659.59;5020274;28;20460;-60
2023/04/17 03:40:05;;;;;;;29.25;18.08;;;;;;;6.68;100.00;97655.31;5017265;28;20509;-61
2023/04/17 03:42:32;;;;;;;28.83;17.75;;;;;;;6.68;100.00;97656.16;5023432;28;20489;-59
2023/04/17 03:44:58;;;;;;;29.63;17.58;;;;;;;6.67;100.00;97662.56;5022054;28;20449;-59
2023/04/17 03:47:26;;;;;;;28.70;17.25;;;;;;;6.67;100.00;97662.56;5018364;28;20041;-60
2023/04/17 03:49:53;;;;;;;31.33;18.52;;;;;;;6.63;100.00;97656.78;5021995;28;20141;-61
2023/04/17 03:52:19;;;;;;;28.90;16.90;;;;;;;6.62;100.00;97662.41;5015596;28;20042;-60
2023/04/17 03:54:51;;;;;;;29.75;17.20;;;;;;;6.63;100.00;97662.19;5012440;28;20088;-60
2023/04/17 03:57:18;;;;;;;32.10;18.20;;;;;;;6.67;100.00;97664.44;5034343;28;20080;-60
2023/04/17 03:59:45;;;;;;;33.67;19.30;;;;;;;6.61;100.00;97666.97;5014197;28;20053;-58
2023/04/17 04:02:11;;;;;;;30.48;17.92;;;;;;;6.63;100.00;97664.88;5025672;28;20452;-60
2023/04/17 04:04:38;;;;;;;33.20;18.30;;;;;;;6.63;100.00;97666.72;5019150;28;20041;-59
2023/04/17 04:07:10;;;;;;;32.53;19.67;;;;;;;6.58;100.00;97669.25;5024082;28;20044;-60
2023/04/17 04:09:37;;;;;;;33.83;19.20;;;;;;;6.57;100.00;97671.13;5043139;28;20045;-60
2023/04/17 04:12:05;;;;;;;30.88;18.52;;;;;;;6.57;100.00;97679.22;5025006;28;20044;-60
2023/04/17 04:14:37;;;;;;;32.15;18.58;;;;;;;6.56;100.00;97674.03;5025158;28;20069;-59
2023/04/17 04:17:07;;;;;;;33.95;19.08;;;;;;;6.50;100.00;97681.13;5021505;28;20048;-59
2023/04/17 04:19:34;;;;;;;32.50;19.75;;;;;;;6.53;100.00;97682.53;5028669;28;20133;-60
2023/04/17 04:22:01;;;;;;;34.10;19.70;;;;;;;6.61;100.00;97682.28;5019232;28;20099;-57
2023/04/17 04:24:37;;;;;;;31.85;17.40;;;;;;;6.53;100.00;97687.91;5041135;28;20040;-58
2023/04/17 04:27:04;;;;;;;34.85;20.27;;;;;;;6.47;100.00;97686.91;5033436;28;20045;-58
2023/04/17 04:29:33;;;;;;;32.42;18.08;;;;;;;6.57;100.00;97687.28;5032883;28;20120;-58
2023/04/17 04:32:08;;;;;;;30.55;19.05;;;;;;;6.52;100.00;97684.41;5022671;28;20045;-60
2023/04/17 04:34:40;;;;;;;30.98;19.02;;;;;;;6.51;100.00;97682.75;5029506;28;20568;-60
2023/04/17 04:37:07;;;;;;;34.20;19.40;;;;;;;6.43;100.00;97685.72;5024556;28;20044;-59
2023/04/17 04:39:38;;;;;;;29.95;18.17;;;;;;;6.38;100.00;97687.19;5010998;28;20049;-60
2023/04/17 04:42:08;;;;;;;29.90;18.40;;;;;;;6.46;100.00;97683.44;5020789;28;20038;-58
2023/04/17 04:44:47;;;;;;;29.55;17.83;;;;;;;6.54;100.00;97687.72;5025690;28;20059;-59
2023/04/17 04:47:18;;;;;;;29.02;17.13;;;;;;;6.58;100.00;97690.78;5025647;28;20132;-59
2023/04/17 04:49:47;;;;;;;29.95;17.10;;;;;;;6.55;100.00;97688.50;5028384;28;20490;-58
2023/04/17 04:52:17;;;;;;;28.80;16.40;;;;;;;6.59;100.00;97689.72;5026175;28;20073;-60
2023/04/17 04:54:43;;;;;;;28.25;16.63;;;;;;;6.60;100.00;97688.72;5030708;28;20046;-59
2023/04/17 04:57:10;;;;;;;27.33;16.55;;;;;;;6.57;100.00;97681.91;5028406;28;20128;-60
2023/04/17 04:59:38;;;;;;;26.45;15.60;;;;;;;6.63;100.00;97693.63;5025657;28;20045;-60
2023/04/17 05:02:22;;;;;;;26.60;15.63;;;;;;;6.64;100.00;97693.41;5018269;28;20038;-60
2023/04/17 05:04:49;;;;;;;27.08;17.10;;;;;;;6.62;100.00;97694.69;5031468;28;20045;-59
2023/04/17 05:07:16;;;;;;;28.67;15.40;;;;;;;6.61;100.00;97690.34;5024239;28;20042;-59
2023/04/17 05:09:44;;;;;;;26.25;15.73;;;;;;;6.62;100.00;97700.91;5029161;28;20075;-60
2023/04/17 05:12:12;;;;;;;26.10;16.02;;;;;;;6.59;100.00;97698.63;5015000;28;20445;-59
2023/04/17 05:14:39;;;;;;;27.35;16.55;;;;;;;6.61;100.00;97690.34;5025182;28;20041;-59
2023/04/17 05:17:07;;;;;;;26.55;15.90;;;;;;;6.63;100.00;97694.47;5017434;28;20500;-60
2023/04/17 05:19:33;;;;;;;28.45;15.80;;;;;;;6.60;100.00;97697.59;5029825;28;20049;-59
2023/04/17 05:22:03;;;;;;;24.30;14.95;;;;;;;6.61;100.00;97704.63;5026253;28;20066;-60
2023/04/17 05:24:34;;;;;;;24.33;14.23;;;;;;;6.62;100.00;97702.75;5029105;28;20039;-59
2023/04/17 05:27:01;;;;;;;26.52;15.50;;;;;;;6.62;100.00;97703.59;5017727;28;20048;-60
2023/04/17 05:29:27;;;;;;;21.73;14.27;;;;;;;6.63;100.00;97701.69;5017952;28;20050;-59
2023/04/17 05:31:55;;;;;;;26.70;16.17;;;;;;;6.56;100.00;97704.44;5023730;28;20156;-60
2023/04/17 05:34:37;;;;;;;26.27;15.50;;;;;;;6.56;100.00;97709.81;5021212;28;20052;-60
2023/04/17 05:37:04;;;;;;;26.55;16.52;;;;;;;6.46;100.00;97704.13;5021679;28;20632;-57
2023/04/17 05:39:30;;;;;;;29.05;16.90;;;;;;;6.49;100.00;97709.06;5020044;28;20053;-59
2023/04/17 05:41:57;;;;;;;24.90;15.20;;;;;;;6.53;100.00;97707.59;5030137;28;20520;-60
2023/04/17 05:44:24;;;;;;;23.58;14.07;;;;;;;6.64;100.00;97714.94;5025154;28;20120;-59
2023/04/17 05:46:51;;;;;;;23.48;14.60;;;;;;;6.66;100.00;97712.03;5030589;28;20612;-58
2023/04/17 05:49:17;;;;;;;21.42;13.25;;;;;;;6.67;100.00;97712.88;5016995;28;20539;-60
2023/04/17 05:51:44;;;;;;;27.17;15.20;;;;;;;6.64;100.00;97714.94;5027151;28;20041;-59
2023/04/17 05:54:11;;;;;;;25.73;15.18;;;;;;;6.57;100.00;97708.81;5016784;28;20416;-58
2023/04/17 05:56:39;;;;;;;26.60;14.55;;;;;;;6.59;100.00;97717.47;4996661;28;20606;-60
2023/04/17 05:59:05;;;;;;;24.52;14.40;;;;;;;6.58;100.00;97715.81;5025504;28;20459;-58
2023/04/17 06:01:33;;;;;;;24.85;15.20;;;;;;;6.63;100.00;97713.31;5032122;28;20045;-60
2023/04/17 06:03:59;;;;;;;23.88;14.80;;;;;;;6.64;100.00;97712.25;5012970;28;20053;-58
2023/04/17 06:06:27;;;;;;;24.23;14.68;;;;;;;6.66;100.00;97709.34;4992648;28;20126;-60
2023/04/17 06:08:56;;;;;;;24.85;15.35;;;;;;;6.66;100.00;97705.84;5019781;28;20049;-58
2023/04/17 06:11:23;;;;;;;24.00;15.40;;;;;;;6.57;100.00;97711.50;5000842;28;20053;-60
2023/04/17 06:13:50;;;;;;;25.30;14.82;;;;;;;6.66;100.00;97716.63;5018204;28;20041;-59
2023/04/17 06:16:17;;;;;;;24.20;14.57;;;;;;;6.66;100.00;97714.72;5029403;28;20052;-57
2023/04/17 06:18:46;;;;;;;24.98;14.63;;;;;;;6.68;100.00;97714.50;5027429;28;20551;-58
2023/04/17 06:21:12;;;;;;;22.75;14.27;;;;;;;6.67;100.00;97713.69;5020134;28;20057;-59
2023/04/17 06:23:39;;;;;;;23.23;14.30;;;;;;;6.56;100.00;97717.91;5021623;28;20049;-60
2023/04/17 06:26:06;;;;;;;23.02;13.98;;;;;;;6.68;100.00;97720.72;5019553;28;20107;-59
2023/04/17 06:28:33;;;;;;;22.77;14.48;;;;;;;6.73;100.00;97723.59;5017527;28;20088;-60
2023/04/17 06:30:59;;;;;;;22.63;13.90;;;;;;;6.71;100.00;97722.16;5026896;28;20077;-60
2023/04/17 06:33:26;;;;;;;20.98;13.32;;;;;;;6.63;100.00;97724.06;5011959;28;20387;-58
2023/04/17 06:35:54;;;;;;;21.35;12.93;;;;;;;6.72;100.00;97724.63;5021323;28;20077;-60
2023/04/17 06:38:31;;;;;;;20.95;13.30;;;;;;;6.74;100.00;97725.22;5018808;28;20128;-60
2023/04/17 06:40:58;;;;;;;19.98;12.63;;;;;;;6.78;100.00;97728.31;5033825;28;20041;-59
2023/04/17 06:43:24;;;;;;;20.17;12.02;;;;;;;6.84;100.00;97727.44;5023028;28;20738;-62
2023/04/17 06:45:52;;;;;;;19.55;11.75;;;;;;;6.82;100.00;97718.75;5024013;28;20028;-60
2023/04/17 06:48:18;;;;;;;20.88;12.23;;;;;;;6.64;100.00;97731.09;5028076;28;20055;-61
2023/04/17 06:50:45;;;;;;;19.30;12.73;;;;;;;6.66;100.00;97727.38;5028461;28;20036;-61
2023/04/17 06:53:11;;;;;;;21.35;12.50;;;;;;;6.73;100.00;97730.81;5029736;28;20055;-60
2023/04/17 06:55:38;;;;;;;18.58;11.77;;;;;;;6.70;100.00;97731.25;5036259;28;20049;-60
2023/04/17 06:58:07;;;;;;;21.75;13.55;;;;;;;6.51;100.00;97731.19;5032434;28;20033;-60
2023/04/17 07:00:33;;;;;;;25.15;13.80;;;;;;;6.63;100.00;97742.06;5029114;28;20066;-60
2023/04/17 07:03:00;;;;;;;23.85;13.10;;;;;;;6.70;100.00;97734.78;5032596;28;20033;-61
2023/04/17 07:05:27;;;;;;;23.92;12.93;;;;;;;6.79;100.00;97740.75;5026202;28;20042;-61
2023/04/17 07:07:54;;;;;;;21.88;12.90;;;;;;;6.67;100.00;97734.41;5025112;28;20038;-60
2023/04/17 07:10:20;;;;;;;19.48;11.55;;;;;;;6.66;100.00;97747.03;5028707;28;20544;-59
2023/04/17 07:12:47;;;;;;;20.52;11.43;;;;;;;6.76;100.00;97736.63;5034793;28;20085;-61
2023/04/17 07:15:15;;;;;;;22.45;13.65;;;;;;;6.79;100.00;97746.13;5031054;28;20041;-60
2023/04/17 07:17:41;;;;;;;21.17;11.63;;;;;;;6.88;100.00;97743.97;5035036;28;20104;-60
2023/04/17 07:20:08;;;;;;;20.45;12.10;;;;;;;6.94;100.00;97747.66;5023420;28;20740;-60
2023/04/17 07:22:35;;;;;;;20.60;12.77;;;;;;;6.93;100.00;97746.00;5026850;28;20052;-60
2023/04/17 07:25:03;;;;;;;21.67;11.98;;;;;;;6.96;100.00;97748.28;5034131;28;20115;-60
2023/04/17 07:27:29;;;;;;;22.17;12.57;;;;;;;6.82;100.00;97750.25;5029464;28;20754;-60
2023/04/17 07:29:56;;;;;;;19.02;12.20;;;;;;;6.77;100.00;97753.56;5034840;28;20091;-59
2023/04/17 07:32:25;;;;;;;22.60;12.80;;;;;;;6.61;100.00;97754.94;5022327;28;20496;-60
2023/04/17 07:34:52;;;;;;;18.30;12.05;;;;;;;6.60;100.00;97761.34;5021749;28;20033;-61
2023/04/17 07:37:18;;;;;;;20.30;12.07;;;;;;;6.71;100.00;97759.84;5026365;28;20126;-61
2023/04/17 07:39:48;;;;;;;21.80;12.05;;;;;;;6.83;100.00;97759.97;5030523;28;20049;-61
2023/04/17 07:42:15;;;;;;;20.80;11.88;;;;;;;6.87;100.00;97756.63;5030718;28;20595;-60
2023/04/17 07:44:41;;;;;;;19.67;11.95;;;;;;;6.81;100.00;97760.16;5022370;28;20041;-60
2023/04/17 07:47:08;;;;;;;19.00;11.25;;;;;;;6.70;100.00;97758.16;5032737;28;20037;-61
2023/04/17 07:49:34;;;;;;;19.40;11.90;;;;;;;6.65;100.00;97761.53;5026568;28;20057;-60
2023/04/17 07:52:01;;;;;;;18.98;12.15;;;;;;;6.66;100.00;97765.84;5031124;28;20779;-61
2023/04/17 07:54:29;;;;;;;21.10;12.68;;;;;;;6.82;100.00;97767.19;5031142;28;20045;-61
2023/04/17 07:56:57;;;;;;;18.15;11.27;;;;;;;6.87;100.00;97763.84;5031636;28;20073;-61
2023/04/17 07:59:23;;;;;;;21.77;12.30;;;;;;;6.76;100.00;97770.78;5034267;28;20041;-61
2023/04/17 08:01:51;;;;;;;22.13;13.88;;;;;;;6.78;100.00;97765.16;5030334;28;20045;-60
2023/04/17 08:04:18;;;;;;;20.85;12.38;;;;;;;6.79;100.00;97769.50;5025451;28;20044;-60
2023/04/17 08:06:44;;;;;;;22.98;12.68;;;;;;;6.80;100.00;97763.91;5027943;28;20046;-61
2023/04/17 08:09:11;;;;;;;18.58;11.80;;;;;;;6.86;100.00;97767.59;5023954;28;20041;-61
2023/04/17 08:11:38;;;;;;;18.63;11.57;;;;;;;6.84;100.00;97773.19;5033322;28;20050;-59
2023/04/17 08:14:22;;;;;;;18.58;11.85;;;;;;;7.00;100.00;97773.69;5036190;28;20461;-61
2023/04/17 08:16:48;;;;;;;21.67;11.52;;;;;;;7.00;100.00;97782.59;5036428;28;20082;-59
2023/04/17 08:19:15;;;;;;;18.70;11.57;;;;;;;7.09;100.00;97779.63;5023548;28;20048;-61
2023/04/17 08:21:41;;;;;;;18.85;11.60;;;;;;;7.19;100.00;97779.16;5029798;28;20049;-61
2023/04/17 08:24:08;;;;;;;17.45;10.70;;;;;;;7.28;100.00;97775.13;5032475;28;20079;-59
2023/04/17 08:26:35;;;;;;;17.05;9.98;;;;;;;7.28;100.00;97777.84;5025745;28;20149;-60
2023/04/17 08:29:03;;;;;;;16.33;10.57;;;;;;;7.19;100.00;97781.84;5030092;28;20045;-60
2023/04/17 08:31:30;;;;;;;16.58;10.27;;;;;;;7.28;100.00;97783.22;5032620;28;20052;-59
2023/04/17 08:33:59;;;;;;;15.60;10.63;;;;;;;7.24;100.00;97787.41;5035285;28;20483;-61
2023/04/17 08:36:40;;;;;;;15.27;10.65;;;;;;;7.31;100.00;97781.94;5028488;28;20056;-61
2023/04/17 08:39:08;;;;;;;16.92;10.57;;;;;;;7.33;100.00;97783.38;5032044;28;20059;-61
2023/04/17 08:41:43;;;;;;;17.95;10.45;;;;;;;7.45;100.00;97786.19;5033097;28;20080;-61
2023/04/17 08:44:10;;;;;;;16.73;10.48;;;;;;;7.55;100.00;97781.09;5036835;28;20091;-60
2023/04/17 08:46:37;;;;;;;20.33;10.00;;;;;;;7.78;100.00;97779.63;5026068;28;20038;-60
2023/04/17 08:49:04;;;;;;;15.02;10.20;;;;;;;7.88;100.00;97787.19;5034890;28;20049;-60
2023/04/17 08:51:31;;;;;;;14.98;9.85;;;;;;;7.79;100.00;97789.38;5029050;28;20041;-59
2023/04/17 08:53:58;;;;;;;16.42;9.88;;;;;;;7.80;100.00;97796.41;5034822;28;20037;-60
2023/04/17 08:56:24;;;;;;;16.23;10.43;;;;;;;7.85;100.00;97792.22;5025281;28;20152;-60
2023/04/17 08:58:51;;;;;;;14.60;10.18;;;;;;;7.76;100.00;97789.00;5030225;28;20049;-60
2023/04/17 09:01:19;;;;;;;16.55;10.30;;;;;;;7.89;100.00;97788.84;5029566;28;20119;-60
2023/04/17 09:03:47;;;;;;;15.80;9.93;;;;;;;7.92;100.00;97790.25;5032737;28;20053;-60
2023/04/17 09:06:14;;;;;;;15.25;9.68;;;;;;;7.81;100.00;97795.38;5030820;28;20087;-60
2023/04/17 09:08:54;;;;;;;19.65;10.48;;;;;;;7.71;100.00;97786.16;5032781;28;20041;-60
2023/04/17 09:11:21;;;;;;;17.25;10.07;;;;;;;7.67;100.00;97785.78;5029259;28;20534;-60
2023/04/17 09:13:47;;;;;;;14.40;9.82;;;;;;;7.70;100.00;97785.31;5032108;28;20102;-61
2023/04/17 09:16:14;;;;;;;15.30;10.27;;;;;;;7.53;100.00;97788.56;5034565;28;20083;-60
2023/04/17 09:18:41;;;;;;;16.15;9.68;;;;;;;7.64;100.00;97789.75;5035832;28;20076;-61
2023/04/17 09:21:08;;;;;;;15.48;10.00;;;;;;;7.72;100.00;97791.31;5026171;28;20053;-61
2023/04/17 09:23:49;;;;;;;16.10;9.35;;;;;;;7.77;100.00;97793.31;5025650;28;20045;-60
2023/04/17 09:26:22;;;;;;;16.55;9.90;;;;;;;7.62;100.00;97794.50;5023836;28;20053;-60
2023/04/17 09:29:10;;;;;;;18.55;10.05;;;;;;;7.45;100.00;97793.44;5030601;28;20051;-60
2023/04/17 09:31:41;;;;;;;18.25;9.80;;;;;;;7.41;100.00;97803.84;5025428;28;20030;-61
2023/04/17 09:34:14;;;;;;;19.67;9.93;;;;;;;7.58;100.00;97798.69;5029900;28;20781;-61
2023/04/17 09:36:42;;;;;;;18.40;9.52;;;;;;;7.68;100.00;97799.00;5032704;28;20041;-60
2023/04/17 09:39:17;;;;;;;16.15;10.23;;;;;;;7.79;100.00;97796.63;5033497;28;20045;-61
2023/04/17 09:41:44;;;;;;;15.63;9.93;;;;;;;7.58;100.00;97797.88;5026657;28;20571;-60
2023/04/17 09:44:22;;;;;;;15.85;9.75;;;;;;;7.53;100.00;97802.03;5025011;28;20045;-61
2023/04/17 09:46:49;;;;;;;16.05;9.98;;;;;;;7.65;100.00;97799.47;5032146;28;20144;-60
2023/04/17 09:49:24;;;;;;;16.98;10.48;;;;;;;7.77;100.00;97807.63;5034729;28;20091;-61
2023/04/17 09:51:51;;;;;;;15.68;10.10;;;;;;;7.89;100.00;97798.81;5026246;28;20072;-60
2023/04/17 09:54:19;;;;;;;15.20;8.85;;;;;;;7.96;100.00;97804.13;5027030;28;20699;-61
2023/04/17 09:56:48;;;;;;;15.23;10.13;;;;;;;7.98;100.00;97800.16;5029121;28;20052;-61
2023/04/17 09:59:15;;;;;;;16.40;9.88;;;;;;;8.03;100.00;97799.47;5030068;28;20837;-61
2023/04/17 10:01:42;;;;;;;16.90;10.05;;;;;;;7.89;100.00;97801.53;5026079;28;20400;-61
2023/04/17 10:04:10;;;;;;;16.15;9.93;;;;;;;8.09;100.00;97801.28;5031785;28;20555;-60
2023/04/17 10:06:37;;;;;;;15.98;9.60;;;;;;;8.14;100.00;97796.03;5031297;28;20053;-60
2023/04/17 10:09:04;;;;;;;16.38;9.60;;;;;;;8.15;100.00;97797.69;5034070;28;20075;-60
2023/04/17 10:11:36;;;;;;;15.73;9.60;;;;;;;8.05;100.00;97797.41;5028341;28;20050;-60
2023/04/17 10:14:09;;;;;;;;;;;;;;;8.12;100.00;97790.06;5034384;28;20048;-61
2023/04/17 10:16:38;;;;;;;15.50;9.38;;;;;;;8.48;100.00;97797.50;5036209;28;19920;-60
2023/04/17 10:19:26;;;;;;;13.75;9.13;;;;;;;8.76;100.00;97788.00;5037288;28;20070;-60
2023/04/17 10:22:14;;;;;;;14.48;9.50;;;;;;;9.16;100.00;97786.59;5023777;28;20039;-61
2023/04/17 10:24:41;;;;;;;14.55;8.35;;;;;;;9.06;100.00;97777.19;5029066;28;20820;-60
2023/04/17 10:27:26;;;;;;;12.40;7.90;;;;;;;9.28;100.00;97773.09;5033704;28;20527;-60
2023/04/17 10:29:58;;;;;;;13.77;8.35;;;;;;;9.14;100.00;97776.00;5013811;28;20049;-60
2023/04/17 10:32:27;;;;;;;12.23;7.40;;;;;;;9.09;100.00;97770.47;5029600;28;20040;-60
2023/04/17 10:35:03;;;;;;;19.05;7.97;;;;;;;9.11;100.00;97771.88;5021030;28;20790;-61
2023/04/17 10:38:05;;;;;;;11.30;7.20;;;;;;;9.17;100.00;97762.03;5029545;28;20527;-61
2023/04/17 10:40:34;;;;;;;11.10;7.55;;;;;;;9.08;100.00;97766.97;4998691;28;20049;-63
2023/04/17 10:43:19;;;;;;;9.90;6.70;;;;;;;9.08;100.00;97760.75;5033252;28;20057;-61
2023/04/17 10:46:08;;;;;;;10.80;6.35;;;;;;;8.93;100.00;97755.78;5033216;28;20099;-60
2023/04/17 10:48:44;;;;;;;10.02;6.55;;;;;;;9.04;100.00;97754.16;5035191;28;20049;-62
2023/04/17 10:51:19;;;;;;;11.45;6.82;;;;;;;9.24;100.00;97760.06;5037669;28;20041;-60
2023/04/17 10:53:48;;;;;;;10.20;6.68;;;;;;;9.37;100.00;97755.47;5027232;28;20052;-61
2023/04/17 10:56:29;;;;;;;9.68;6.15;;;;;;;9.91;100.00;97756.38;5025673;28;20045;-61
2023/04/17 10:59:16;;;;;;;8.30;5.30;;;;;;;10.11;100.00;97753.28;5029949;28;20072;-61
2023/04/17 11:01:48;;;;;;;8.93;5.68;;;;;;;10.57;100.00;97749.84;5029769;28;20051;-62
2023/04/17 11:04:23;;;;;;;6.90;4.95;;;;;;;10.68;100.00;97745.44;5033598;28;20124;-61
2023/04/17 11:06:51;;;;;;;7.35;4.72;;;;;;;10.87;98.83;97738.72;5026468;28;20033;-60
2023/04/17 11:09:28;;;;;;;8.20;5.32;;;;;;;10.53;100.00;97744.91;5022071;28;20045;-61
2023/04/17 11:12:00;;;;;;;7.18;4.80;;;;;;;10.26;100.00;97745.47;5028641;28;20642;-61
2023/04/17 11:14:26;;;;;;;;;;;;;;;10.35;99.30;97742.34;5024170;28;20100;-61
2023/04/17 11:16:52;;;;;;;6.93;4.63;;;;;;;10.18;98.84;97745.03;5025013;28;19925;-62
2023/04/17 11:19:21;;;;;;;9.07;4.72;;;;;;;10.43;97.21;97739.25;5031820;28;20057;-60
2023/04/17 11:21:51;;;;;;;7.25;4.90;;;;;;;10.67;96.79;97736.50;5025453;28;20049;-62
2023/04/17 11:24:25;;;;;;;7.18;4.55;;;;;;;10.14;99.31;97741.97;5032143;28;20052;-61
2023/04/17 11:26:53;;;;;;;6.45;4.07;;;;;;;10.28;95.71;97729.81;5028104;28;20566;-61